Time;durP1;ratioP1;P1;durP2;ratioP2;P2;SDS_P1;SDS_P2;PMS_P1;PMS_P2;Temp;Humidity;BMP_temperature;BMP_pressure;BME280_temperature;BME280_humidity;BME280_pressure;Samples;Min_cycle;Max_cycle;Signal;HPM_P1;HPM_P2
2021/03/24 00:01:21;;;;;;;80.32;36.10;;;;;;;;;;4987443;28;20038;-75
2021/03/24 00:03:47;;;;;;;72.20;34.35;;;;;;;;;;4987026;28;20061;-75
2021/03/24 00:06:14;;;;;;;87.15;38.47;;;;;;;;;;4987218;28;20058;-75
2021/03/24 00:08:40;;;;;;;74.75;35.85;;;;;;;;;;4986537;28;20041;-75
2021/03/24 00:11:07;;;;;;;82.40;36.03;;;;;;;;;;4980718;28;20030;-75
2021/03/24 00:13:33;;;;;;;76.43;38.05;;;;;;;;;;4978263;28;20125;-75
2021/03/24 00:15:59;;;;;;;73.60;36.83;;;;;;;;;;4985430;28;20542;-75
2021/03/24 00:18:25;;;;;;;79.13;38.95;;;;;;;;;;4987213;28;20042;-75
2021/03/24 00:20:52;;;;;;;80.05;37.65;;;;;;;;;;4971158;28;21819;-75
2021/03/24 00:23:17;;;;;;;79.32;36.25;;;;;;;;;;4978500;28;20026;-75
2021/03/24 00:25:44;;;;;;;82.97;37.60;;;;;;;;;;4980336;28;20045;-74
2021/03/24 00:28:13;;;;;;;91.30;40.08;;;;;;;;;;4986856;28;20034;-75
2021/03/24 00:30:44;;;;;;;86.70;39.03;;;;;;;;;;4972097;28;20031;-75
2021/03/24 00:33:14;;;;;;;84.15;40.95;;;;;;;;;;4971685;28;20018;-75
2021/03/24 00:35:40;;;;;;;85.05;38.85;;;;;;;;;;4985688;28;20121;-75
2021/03/24 00:38:07;;;;;;;82.93;37.97;;;;;;;;;;4986416;28;20030;-75
2021/03/24 00:40:34;;;;;;;83.45;39.35;;;;;;;;;;4986511;28;20026;-75
2021/03/24 00:43:00;;;;;;;81.38;39.20;;;;;;;;;;5031651;28;20041;-75
2021/03/24 00:45:26;;;;;;;77.93;38.67;;;;;;;;;;4999126;28;20078;-75
2021/03/24 00:47:52;;;;;;;79.80;37.97;;;;;;;;;;4977800;28;20481;-75
2021/03/24 00:50:21;;;;;;;72.13;35.72;;;;;;;;;;4964775;28;20483;-75
2021/03/24 00:52:47;;;;;;;84.00;38.00;;;;;;;;;;4973026;28;20065;-76
2021/03/24 00:55:13;;;;;;;80.97;38.22;;;;;;;;;;4986993;28;20030;-75
2021/03/24 00:57:39;;;;;;;83.40;37.60;;;;;;;;;;4986469;28;20033;-75
2021/03/24 01:00:06;;;;;;;85.90;38.58;;;;;;;;;;4987943;28;20038;-75
2021/03/24 01:02:32;;;;;;;90.07;38.72;;;;;;;;;;4986573;28;20484;-75
2021/03/24 01:04:58;;;;;;;78.47;39.67;;;;;;;;;;4974401;28;20031;-75
2021/03/24 01:07:24;;;;;;;83.80;38.22;;;;;;;;;;4970764;28;20242;-75
2021/03/24 01:09:50;;;;;;;84.55;40.95;;;;;;;;;;4986367;28;20585;-75
2021/03/24 01:12:16;;;;;;;76.95;36.33;;;;;;;;;;4985742;28;20053;-75
2021/03/24 01:14:42;;;;;;;76.88;35.72;;;;;;;;;;4984837;28;20045;-75
2021/03/24 01:17:08;;;;;;;89.57;38.85;;;;;;;;;;4983914;28;20046;-75
2021/03/24 01:19:34;;;;;;;85.05;39.20;;;;;;;;;;4986378;28;20775;-75
2021/03/24 01:22:00;;;;;;;82.45;40.50;;;;;;;;;;4986012;28;20026;-75
2021/03/24 01:24:26;;;;;;;84.03;39.55;;;;;;;;;;4980102;28;20031;-75
2021/03/24 01:26:52;;;;;;;81.50;38.08;;;;;;;;;;4975343;28;20404;-75
2021/03/24 01:29:18;;;;;;;84.35;39.97;;;;;;;;;;4971722;28;20117;-75
2021/03/24 01:31:44;;;;;;;85.93;40.47;;;;;;;;;;4986045;28;20709;-75
2021/03/24 01:34:10;;;;;;;80.00;39.38;;;;;;;;;;4970132;28;20248;-75
2021/03/24 01:36:36;;;;;;;79.22;36.65;;;;;;;;;;4985741;28;20025;-76
2021/03/24 01:39:03;;;;;;;77.57;36.95;;;;;;;;;;4985599;28;20030;-75
2021/03/24 01:41:29;;;;;;;76.68;36.35;;;;;;;;;;4981460;28;20546;-75
2021/03/24 01:43:56;;;;;;;75.28;35.67;;;;;;;;;;4984976;28;20034;-75
2021/03/24 01:46:25;;;;;;;82.50;36.22;;;;;;;;;;4984487;28;20038;-75
2021/03/24 01:48:51;;;;;;;85.55;40.75;;;;;;;;;;4980809;28;20091;-75
2021/03/24 01:51:18;;;;;;;83.10;38.70;;;;;;;;;;4985085;28;20030;-74
2021/03/24 01:53:44;;;;;;;90.55;42.13;;;;;;;;;;4984935;28;20388;-75
2021/03/24 01:56:11;;;;;;;85.60;38.95;;;;;;;;;;4972309;28;20035;-75
2021/03/24 01:58:38;;;;;;;98.40;43.67;;;;;;;;;;4979901;28;20489;-75
2021/03/24 02:01:06;;;;;;;92.35;40.88;;;;;;;;;;4978110;28;20036;-75
2021/03/24 02:03:32;;;;;;;97.20;43.63;;;;;;;;;;4985580;28;20395;-75
2021/03/24 02:06:00;;;;;;;90.28;39.67;;;;;;;;;;4986856;28;20061;-76
2021/03/24 02:08:29;;;;;;;98.75;39.30;;;;;;;;;;4983944;28;20454;-75
2021/03/24 02:11:03;;;;;;;86.63;38.92;;;;;;;;;;4971589;28;20080;-75
2021/03/24 02:13:31;;;;;;;77.25;37.17;;;;;;;;;;4983333;28;20062;-75
2021/03/24 02:15:59;;;;;;;84.95;36.63;;;;;;;;;;4984776;28;20388;-75
2021/03/24 02:18:27;;;;;;;83.75;36.88;;;;;;;;;;4985471;28;20042;-75
2021/03/24 02:21:11;;;;;;;86.30;37.20;;;;;;;;;;4985690;28;20110;-75
2021/03/24 02:23:44;;;;;;;83.65;38.47;;;;;;;;;;4985390;28;20026;-75
2021/03/24 02:26:29;;;;;;;90.38;43.17;;;;;;;;;;4983364;28;20454;-75
2021/03/24 02:28:55;;;;;;;88.22;40.97;;;;;;;;;;4975252;28;20380;-75
2021/03/24 02:31:23;;;;;;;95.45;43.08;;;;;;;;;;4969899;28;20027;-75
2021/03/24 02:33:50;;;;;;;92.43;39.88;;;;;;;;;;4977075;28;20027;-75
2021/03/24 02:36:17;;;;;;;89.68;38.60;;;;;;;;;;4979381;28;20072;-75
2021/03/24 02:38:44;;;;;;;80.78;38.70;;;;;;;;;;4970448;28;20034;-75
2021/03/24 02:41:11;;;;;;;92.97;42.28;;;;;;;;;;4985486;28;20479;-76
2021/03/24 02:43:38;;;;;;;107.00;43.67;;;;;;;;;;4984380;28;20058;-75
2021/03/24 02:46:06;;;;;;;101.90;42.03;;;;;;;;;;4985178;28;20065;-75
2021/03/24 02:48:34;;;;;;;110.07;44.13;;;;;;;;;;4984695;28;20030;-75
2021/03/24 02:51:02;;;;;;;105.32;45.13;;;;;;;;;;4969562;28;20089;-75
2021/03/24 02:53:30;;;;;;;101.68;44.63;;;;;;;;;;4978784;28;20054;-75
2021/03/24 02:55:58;;;;;;;108.60;44.38;;;;;;;;;;4965071;28;20103;-75
2021/03/24 02:58:24;;;;;;;108.70;44.15;;;;;;;;;;4978612;28;20105;-75
2021/03/24 03:00:50;;;;;;;105.38;45.80;;;;;;;;;;4984350;28;20023;-75
2021/03/24 03:03:23;;;;;;;111.30;47.15;;;;;;;;;;4973656;28;20520;-75
2021/03/24 03:05:49;;;;;;;116.13;46.85;;;;;;;;;;4984443;28;20026;-75
2021/03/24 03:08:21;;;;;;;114.85;48.58;;;;;;;;;;4974865;28;20472;-75
2021/03/24 03:11:05;;;;;;;124.65;49.92;;;;;;;;;;4979911;28;20357;-75
2021/03/24 03:13:40;;;;;;;131.75;51.28;;;;;;;;;;4976552;28;20065;-75
2021/03/24 03:16:08;;;;;;;141.52;52.47;;;;;;;;;;4984231;28;20031;-75
2021/03/24 03:18:48;;;;;;;132.30;53.25;;;;;;;;;;4973179;28;20056;-75
2021/03/24 03:21:14;;;;;;;;;;;;;;;;;;4983933;28;20034;-75
2021/03/24 03:23:40;;;;;;;143.73;53.20;;;;;;;;;;4984218;28;19913;-75
2021/03/24 03:26:14;;;;;;;140.32;54.03;;;;;;;;;;4984272;28;20498;-75
2021/03/24 03:28:41;;;;;;;137.75;55.47;;;;;;;;;;4987022;28;20037;-75
2021/03/24 03:31:11;;;;;;;155.93;59.22;;;;;;;;;;4986823;28;20061;-75
2021/03/24 03:33:38;;;;;;;156.35;59.60;;;;;;;;;;4986172;28;20480;-75
2021/03/24 03:36:05;;;;;;;157.38;59.65;;;;;;;;;;4987251;28;20045;-75
2021/03/24 03:38:32;;;;;;;151.27;58.83;;;;;;;;;;4975645;28;20033;-75
2021/03/24 03:40:59;;;;;;;146.45;56.50;;;;;;;;;;4987594;28;20039;-75
2021/03/24 03:43:26;;;;;;;168.20;60.75;;;;;;;;;;4987030;28;20395;-75
2021/03/24 03:45:53;;;;;;;151.18;57.35;;;;;;;;;;4987576;28;20083;-75
2021/03/24 03:48:20;;;;;;;149.57;56.53;;;;;;;;;;4985976;28;20031;-75
2021/03/24 03:50:48;;;;;;;160.15;58.83;;;;;;;;;;4974496;28;20050;-75
2021/03/24 03:53:20;;;;;;;152.93;59.03;;;;;;;;;;4985259;28;20026;-75
2021/03/24 03:55:48;;;;;;;170.23;62.15;;;;;;;;;;4972977;28;20396;-75
2021/03/24 03:58:14;;;;;;;159.25;62.25;;;;;;;;;;4987700;28;20038;-75
2021/03/24 04:00:50;;;;;;;163.73;61.10;;;;;;;;;;4981623;28;20027;-75
2021/03/24 04:03:17;;;;;;;167.45;62.17;;;;;;;;;;4977764;28;20046;-75
2021/03/24 04:05:46;;;;;;;158.00;59.85;;;;;;;;;;4986572;28;20041;-75
2021/03/24 04:08:18;;;;;;;154.90;58.10;;;;;;;;;;4987514;28;20062;-75
2021/03/24 04:10:49;;;;;;;157.13;56.17;;;;;;;;;;4989347;28;20025;-75
2021/03/24 04:13:15;;;;;;;168.90;61.55;;;;;;;;;;4985861;28;20498;-75
2021/03/24 04:15:41;;;;;;;161.52;60.38;;;;;;;;;;4986109;28;20037;-75
2021/03/24 04:18:10;;;;;;;173.45;64.63;;;;;;;;;;5039169;28;20042;-75
2021/03/24 04:20:37;;;;;;;166.27;63.63;;;;;;;;;;4978445;28;20054;-75
2021/03/24 04:23:05;;;;;;;172.30;63.33;;;;;;;;;;4984939;28;20035;-75
2021/03/24 04:25:41;;;;;;;168.65;62.70;;;;;;;;;;4987256;28;20038;-75
2021/03/24 04:28:08;;;;;;;172.30;61.35;;;;;;;;;;4986304;28;20037;-75
2021/03/24 04:30:37;;;;;;;170.05;62.42;;;;;;;;;;4985998;28;20030;-75
2021/03/24 04:33:03;;;;;;;170.97;62.90;;;;;;;;;;4986612;28;20503;-75
2021/03/24 04:35:29;;;;;;;166.93;63.72;;;;;;;;;;4985633;28;20031;-75
2021/03/24 04:37:57;;;;;;;163.23;64.68;;;;;;;;;;4986528;28;20034;-75
2021/03/24 04:40:25;;;;;;;171.75;60.42;;;;;;;;;;4986678;28;20050;-75
2021/03/24 04:43:08;;;;;;;171.73;63.08;;;;;;;;;;4985205;28;20121;-75
2021/03/24 04:45:52;;;;;;;155.75;60.00;;;;;;;;;;4967992;28;20023;-75
2021/03/24 04:48:20;;;;;;;143.48;56.88;;;;;;;;;;4979800;28;20030;-75
2021/03/24 04:50:53;;;;;;;152.77;57.67;;;;;;;;;;4986315;28;20038;-75
2021/03/24 04:53:20;;;;;;;152.68;58.35;;;;;;;;;;4986463;28;20030;-74
2021/03/24 04:55:47;;;;;;;176.73;59.10;;;;;;;;;;4972367;28;20037;-74
2021/03/24 04:58:24;;;;;;;139.52;55.47;;;;;;;;;;4985248;28;20034;-75
2021/03/24 05:01:00;;;;;;;145.43;57.10;;;;;;;;;;4966774;28;20027;-75
2021/03/24 05:03:30;;;;;;;144.10;53.65;;;;;;;;;;4980017;28;20030;-75
2021/03/24 05:05:58;;;;;;;122.18;50.30;;;;;;;;;;4985974;28;20062;-75
2021/03/24 05:08:32;;;;;;;158.48;60.30;;;;;;;;;;4974996;28;20058;-75
2021/03/24 05:11:02;;;;;;;145.93;54.60;;;;;;;;;;4979660;28;20035;-75
2021/03/24 05:13:33;;;;;;;153.00;60.55;;;;;;;;;;4977887;28;20540;-75
2021/03/24 05:16:04;;;;;;;171.95;60.90;;;;;;;;;;5040896;28;20043;-75
2021/03/24 05:18:30;;;;;;;149.20;57.63;;;;;;;;;;4976253;28;20022;-75
2021/03/24 05:21:07;;;;;;;171.90;62.75;;;;;;;;;;4986786;28;20110;-75
2021/03/24 05:23:34;;;;;;;153.98;58.22;;;;;;;;;;4986493;28;20043;-75
2021/03/24 05:26:00;;;;;;;149.65;59.83;;;;;;;;;;4971701;28;20132;-76
2021/03/24 05:28:29;;;;;;;157.27;60.78;;;;;;;;;;4986680;28;20034;-75
2021/03/24 05:30:59;;;;;;;169.73;61.22;;;;;;;;;;4970361;28;20031;-76
2021/03/24 05:33:30;;;;;;;147.30;58.30;;;;;;;;;;4986543;28;20027;-76
2021/03/24 05:36:03;;;;;;;172.98;61.13;;;;;;;;;;4971423;28;20073;-75
2021/03/24 05:38:37;;;;;;;165.55;61.35;;;;;;;;;;4974060;28;20492;-75
2021/03/24 05:41:08;;;;;;;160.07;58.70;;;;;;;;;;4985269;28;20038;-75
2021/03/24 05:43:53;;;;;;;169.00;62.53;;;;;;;;;;4973338;28;20109;-75
2021/03/24 05:46:32;;;;;;;167.45;63.15;;;;;;;;;;4983925;28;20031;-76
2021/03/24 05:49:16;;;;;;;144.93;54.60;;;;;;;;;;4985139;28;20068;-75
2021/03/24 05:52:18;;;;;;;128.70;50.85;;;;;;;;;;4985506;28;20046;-73
2021/03/24 05:54:50;;;;;;;131.57;51.50;;;;;;;;;;4933770;28;20042;-73
2021/03/24 05:57:22;;;;;;;141.68;57.55;;;;;;;;;;4959943;28;20129;-74
2021/03/24 05:59:48;;;;;;;152.63;59.10;;;;;;;;;;4984738;28;20038;-74
2021/03/24 06:02:19;;;;;;;155.70;61.20;;;;;;;;;;4986143;28;20038;-74
2021/03/24 06:04:50;;;;;;;172.60;63.80;;;;;;;;;;4986829;28;20064;-74
2021/03/24 06:07:35;;;;;;;140.00;59.65;;;;;;;;;;4984017;28;20035;-74
2021/03/24 06:10:20;;;;;;;126.75;56.65;;;;;;;;;;4977056;28;20027;-74
2021/03/24 06:13:00;;;;;;;106.35;49.75;;;;;;;;;;4983975;28;20109;-74
2021/03/24 06:15:46;;;;;;;93.55;47.17;;;;;;;;;;4985640;28;20070;-73
2021/03/24 06:18:12;;;;;;;95.45;44.15;;;;;;;;;;4979327;28;20045;-74
2021/03/24 06:20:48;;;;;;;78.90;39.83;;;;;;;;;;4978874;28;20399;-73
2021/03/24 06:23:14;;;;;;;87.28;41.58;;;;;;;;;;4987181;28;20575;-74
2021/03/24 06:25:40;;;;;;;76.90;42.83;;;;;;;;;;4985876;28;20148;-74
2021/03/24 06:28:24;;;;;;;65.78;39.22;;;;;;;;;;4986931;28;20059;-74
2021/03/24 06:30:54;;;;;;;71.45;38.33;;;;;;;;;;4986521;28;20034;-74
2021/03/24 06:33:30;;;;;;;66.32;36.50;;;;;;;;;;5036787;28;20027;-73
2021/03/24 06:36:05;;;;;;;66.57;38.17;;;;;;;;;;4978335;28;20039;-74
2021/03/24 06:38:50;;;;;;;65.47;37.42;;;;;;;;;;4984049;28;20075;-74
2021/03/24 06:41:28;;;;;;;66.80;38.03;;;;;;;;;;4985000;28;20034;-74
2021/03/24 06:44:12;;;;;;;63.92;37.42;;;;;;;;;;4966573;28;20023;-75
2021/03/24 06:46:47;;;;;;;65.97;38.05;;;;;;;;;;4981837;28;20045;-74
2021/03/24 06:49:23;;;;;;;60.90;35.28;;;;;;;;;;4986355;28;20053;-73
2021/03/24 06:52:08;;;;;;;64.68;38.85;;;;;;;;;;4985451;28;20091;-74
2021/03/24 06:54:34;;;;;;;62.17;37.25;;;;;;;;;;4984441;28;20034;-74
2021/03/24 06:57:19;;;;;;;61.00;35.60;;;;;;;;;;4981909;28;20080;-75
2021/03/24 06:59:45;;;;;;;59.60;36.22;;;;;;;;;;4976855;28;20418;-75
2021/03/24 07:02:20;;;;;;;60.08;38.20;;;;;;;;;;4984479;28;20022;-75
2021/03/24 07:05:10;;;;;;;58.53;36.00;;;;;;;;;;4979845;28;20033;-75
2021/03/24 07:07:36;;;;;;;;;;;;;;;;;;4984691;28;20037;-74
2021/03/24 07:10:13;;;;;;;57.80;36.58;;;;;;;;;;4985046;28;19909;-74
2021/03/24 07:12:55;;;;;;;59.88;35.45;;;;;;;;;;4988755;28;20034;-75
2021/03/24 07:15:27;;;;;;;56.10;36.75;;;;;;;;;;4985930;28;20030;-75
2021/03/24 07:17:53;;;;;;;53.30;35.03;;;;;;;;;;4987465;28;20082;-75
2021/03/24 07:20:34;;;;;;;57.00;34.13;;;;;;;;;;4989917;28;20083;-75
2021/03/24 07:23:06;;;;;;;56.75;36.15;;;;;;;;;;4988743;28;20495;-75
2021/03/24 07:25:53;;;;;;;58.30;35.47;;;;;;;;;;4988833;28;20026;-75
2021/03/24 07:28:40;;;;;;;58.70;36.13;;;;;;;;;;4986914;28;20026;-74
2021/03/24 07:31:17;;;;;;;64.22;38.17;;;;;;;;;;4988356;28;20035;-75
2021/03/24 07:33:50;;;;;;;58.40;35.15;;;;;;;;;;4989642;28;20422;-75
2021/03/24 07:36:25;;;;;;;55.80;35.60;;;;;;;;;;4987013;28;20035;-75
2021/03/24 07:38:54;;;;;;;64.35;37.63;;;;;;;;;;4984120;28;20827;-75
2021/03/24 07:41:29;;;;;;;56.20;36.60;;;;;;;;;;4987006;28;20413;-75
2021/03/24 07:44:14;;;;;;;57.03;35.15;;;;;;;;;;4978740;28;20061;-76
2021/03/24 07:46:40;;;;;;;51.20;33.45;;;;;;;;;;4980072;28;20049;-74
2021/03/24 07:49:36;;;;;;;55.60;35.70;;;;;;;;;;4986473;28;20030;-74
2021/03/24 07:52:02;;;;;;;55.90;36.22;;;;;;;;;;4986279;28;20095;-75
2021/03/24 07:54:34;;;;;;;54.25;35.22;;;;;;;;;;4984820;28;20410;-74
2021/03/24 07:57:20;;;;;;;57.10;36.92;;;;;;;;;;4981831;28;20023;-74
2021/03/24 07:59:46;;;;;;;56.83;36.35;;;;;;;;;;4982078;28;20050;-74
2021/03/24 08:02:19;;;;;;;56.42;37.42;;;;;;;;;;4987320;28;20122;-74
2021/03/24 08:04:54;;;;;;;52.78;35.08;;;;;;;;;;4984781;28;20026;-74
2021/03/24 08:07:26;;;;;;;51.80;35.67;;;;;;;;;;4985759;28;20399;-74
2021/03/24 08:09:51;;;;;;;56.15;36.80;;;;;;;;;;4986497;28;20027;-74
2021/03/24 08:12:37;;;;;;;47.08;34.25;;;;;;;;;;4985284;28;20399;-74
2021/03/24 08:15:22;;;;;;;50.00;34.70;;;;;;;;;;5021113;28;20062;-75
2021/03/24 08:18:00;;;;;;;52.53;33.55;;;;;;;;;;4992940;28;20038;-74
2021/03/24 08:20:34;;;;;;;44.30;29.63;;;;;;;;;;4986959;28;20049;-74
2021/03/24 08:23:19;;;;;;;46.25;32.35;;;;;;;;;;4986213;28;20039;-74
2021/03/24 08:25:55;;;;;;;52.60;32.47;;;;;;;;;;4983547;28;20046;-74
2021/03/24 08:28:27;;;;;;;51.50;31.00;;;;;;;;;;4986021;28;20034;-74
2021/03/24 08:30:59;;;;;;;51.70;32.05;;;;;;;;;;4986131;28;20034;-74
2021/03/24 08:33:48;;;;;;;45.80;32.38;;;;;;;;;;4984918;28;20054;-73
2021/03/24 08:36:19;;;;;;;45.63;29.80;;;;;;;;;;4976669;28;20076;-73
2021/03/24 08:39:00;;;;;;;47.40;30.40;;;;;;;;;;4979789;28;20023;-73
2021/03/24 08:41:27;;;;;;;43.75;27.85;;;;;;;;;;4982968;28;20506;-72
2021/03/24 08:43:53;;;;;;;51.03;29.45;;;;;;;;;;4986753;28;20033;-73
2021/03/24 08:46:34;;;;;;;45.70;28.08;;;;;;;;;;4985047;28;20285;-73
2021/03/24 08:49:03;;;;;;;45.20;28.27;;;;;;;;;;4984497;28;20042;-73
2021/03/24 08:51:38;;;;;;;43.38;29.15;;;;;;;;;;4984338;28;20029;-74
2021/03/24 08:54:13;;;;;;;51.92;30.33;;;;;;;;;;4985488;28;20458;-73
2021/03/24 08:56:39;;;;;;;47.55;30.58;;;;;;;;;;4984602;28;20030;-73
2021/03/24 08:59:18;;;;;;;55.67;30.95;;;;;;;;;;4986603;28;20026;-74
2021/03/24 09:01:46;;;;;;;48.90;31.25;;;;;;;;;;4986156;28;20114;-72
2021/03/24 09:04:19;;;;;;;45.30;29.10;;;;;;;;;;4984292;28;20061;-72
2021/03/24 09:06:55;;;;;;;44.65;29.02;;;;;;;;;;4985654;28;20033;-71
2021/03/24 09:09:39;;;;;;;45.25;30.58;;;;;;;;;;4984996;28;20030;-72
2021/03/24 09:12:09;;;;;;;42.95;27.17;;;;;;;;;;4983279;28;20153;-71
2021/03/24 09:14:45;;;;;;;43.30;27.27;;;;;;;;;;4983904;28;20387;-71
2021/03/24 09:17:14;;;;;;;43.58;26.95;;;;;;;;;;4985244;28;20034;-71
2021/03/24 09:19:58;;;;;;;42.13;27.10;;;;;;;;;;4990346;28;20026;-72
2021/03/24 09:22:43;;;;;;;38.70;26.98;;;;;;;;;;4985137;28;20023;-72
2021/03/24 09:25:42;;;;;;;48.67;27.55;;;;;;;;;;4976195;28;20022;-72
2021/03/24 09:28:21;;;;;;;45.88;27.98;;;;;;;;;;4961796;28;20054;-72
2021/03/24 09:30:50;;;;;;;36.92;24.38;;;;;;;;;;4985866;28;20567;-71
2021/03/24 09:33:35;;;;;;;41.95;26.33;;;;;;;;;;4983663;28;20027;-73
2021/03/24 09:36:10;;;;;;;41.08;27.00;;;;;;;;;;4984652;28;20046;-72
2021/03/24 09:38:38;;;;;;;40.30;26.25;;;;;;;;;;4983016;28;20040;-73
2021/03/24 09:41:19;;;;;;;39.58;25.98;;;;;;;;;;4985118;28;20049;-74
2021/03/24 09:43:47;;;;;;;43.15;26.02;;;;;;;;;;4984102;28;20101;-72
2021/03/24 09:46:29;;;;;;;43.40;26.40;;;;;;;;;;4982672;28;20080;-73
2021/03/24 09:48:56;;;;;;;39.95;27.02;;;;;;;;;;4983699;28;20028;-74
2021/03/24 09:51:24;;;;;;;47.00;25.98;;;;;;;;;;4982418;28;20030;-73
2021/03/24 09:53:51;;;;;;;42.67;25.55;;;;;;;;;;4983369;28;20022;-73
2021/03/24 09:56:20;;;;;;;41.88;25.50;;;;;;;;;;4986209;28;20392;-71
2021/03/24 09:58:46;;;;;;;45.45;25.45;;;;;;;;;;4982933;28;20113;-71
2021/03/24 10:01:38;;;;;;;36.80;24.55;;;;;;;;;;4985027;28;20563;-72
2021/03/24 10:04:16;;;;;;;36.67;25.25;;;;;;;;;;4966204;28;20043;-71
2021/03/24 10:06:42;;;;;;;38.72;23.70;;;;;;;;;;4983333;28;20027;-71
2021/03/24 10:09:27;;;;;;;35.83;23.83;;;;;;;;;;4984402;28;20030;-73
2021/03/24 10:11:56;;;;;;;36.47;23.50;;;;;;;;;;4984570;28;20031;-74
2021/03/24 10:14:40;;;;;;;41.10;23.65;;;;;;;;;;4984389;28;20025;-72
2021/03/24 10:17:12;;;;;;;39.40;23.25;;;;;;;;;;4985216;28;20038;-72
2021/03/24 10:19:43;;;;;;;40.70;24.88;;;;;;;;;;4984762;28;20045;-72
2021/03/24 10:22:20;;;;;;;41.72;24.20;;;;;;;;;;4983946;28;20030;-73
2021/03/24 10:24:48;;;;;;;44.78;25.02;;;;;;;;;;4985022;28;20027;-73
2021/03/24 10:27:17;;;;;;;45.55;24.17;;;;;;;;;;4978580;28;20027;-72
2021/03/24 10:29:49;;;;;;;40.45;23.80;;;;;;;;;;4982414;28;20034;-73
2021/03/24 10:32:21;;;;;;;37.67;23.60;;;;;;;;;;4982306;28;20148;-73
2021/03/24 10:34:49;;;;;;;41.08;24.80;;;;;;;;;;4984594;28;20443;-72
2021/03/24 10:37:22;;;;;;;44.90;25.52;;;;;;;;;;4986957;28;20034;-74
2021/03/24 10:39:50;;;;;;;40.83;26.33;;;;;;;;;;4996766;28;20076;-72
2021/03/24 10:42:16;;;;;;;40.20;26.00;;;;;;;;;;5002790;28;20030;-73
2021/03/24 10:45:01;;;;;;;42.42;26.67;;;;;;;;;;4987162;28;20022;-72
2021/03/24 10:47:36;;;;;;;43.38;26.80;;;;;;;;;;4984931;28;20022;-74
2021/03/24 10:50:23;;;;;;;40.65;26.20;;;;;;;;;;4987504;28;20030;-73
2021/03/24 10:52:58;;;;;;;38.92;26.35;;;;;;;;;;4986961;28;20510;-72
2021/03/24 10:55:24;;;;;;;40.63;25.52;;;;;;;;;;4984759;28;20029;-72
2021/03/24 10:58:11;;;;;;;44.75;25.55;;;;;;;;;;4986168;28;20712;-72
2021/03/24 11:00:39;;;;;;;37.20;23.42;;;;;;;;;;4976021;28;20121;-73
2021/03/24 11:03:05;;;;;;;37.28;21.95;;;;;;;;;;4987971;28;20034;-73
2021/03/24 11:05:46;;;;;;;34.42;21.92;;;;;;;;;;4985487;28;20061;-73
2021/03/24 11:08:19;;;;;;;35.13;23.83;;;;;;;;;;4986196;28;20057;-73
2021/03/24 11:10:47;;;;;;;34.60;21.83;;;;;;;;;;4987165;28;20079;-71
2021/03/24 11:13:26;;;;;;;36.72;23.20;;;;;;;;;;4987206;28;20695;-71
2021/03/24 11:15:58;;;;;;;36.25;21.80;;;;;;;;;;4987770;28;20023;-75
2021/03/24 11:18:26;;;;;;;40.63;21.33;;;;;;;;;;4985814;28;20060;-74
2021/03/24 11:20:55;;;;;;;33.03;19.98;;;;;;;;;;4987868;28;20058;-75
2021/03/24 11:23:27;;;;;;;36.83;22.40;;;;;;;;;;4986959;28;20073;-75
2021/03/24 11:25:58;;;;;;;41.05;24.30;;;;;;;;;;4987131;28;20117;-73
2021/03/24 11:28:24;;;;;;;42.70;22.95;;;;;;;;;;4975790;28;20030;-73
2021/03/24 11:31:10;;;;;;;35.15;22.05;;;;;;;;;;4987699;28;20022;-73
2021/03/24 11:33:49;;;;;;;32.17;21.15;;;;;;;;;;4987139;28;20029;-72
2021/03/24 11:36:19;;;;;;;35.03;21.00;;;;;;;;;;4985840;28;20034;-72
2021/03/24 11:38:45;;;;;;;;;;;;;;;;;;4986888;28;20022;-71
2021/03/24 11:41:15;;;;;;;36.83;22.30;;;;;;;;;;4987502;28;19935;-72
2021/03/24 11:43:43;;;;;;;36.67;20.52;;;;;;;;;;4976774;28;20026;-72
2021/03/24 11:46:13;;;;;;;35.83;22.02;;;;;;;;;;4969651;28;20105;-72
2021/03/24 11:48:42;;;;;;;31.70;19.60;;;;;;;;;;4947700;28;20039;-73
2021/03/24 11:51:15;;;;;;;32.65;21.88;;;;;;;;;;4945691;28;20127;-74
2021/03/24 11:53:41;;;;;;;36.10;21.25;;;;;;;;;;4937461;28;20028;-77
2021/03/24 11:56:18;;;;;;;30.63;19.80;;;;;;;;;;4936012;28;20133;-77
2021/03/24 11:58:49;;;;;;;31.38;20.08;;;;;;;;;;4949381;28;20058;-75
2021/03/24 12:01:18;;;;;;;33.60;20.77;;;;;;;;;;4949860;28;20033;-76
2021/03/24 12:03:50;;;;;;;34.10;20.20;;;;;;;;;;4949945;28;20055;-76
2021/03/24 12:06:25;;;;;;;34.28;21.23;;;;;;;;;;4950225;28;20420;-75
2021/03/24 12:08:55;;;;;;;34.25;20.85;;;;;;;;;;4952839;28;20599;-75
2021/03/24 12:11:23;;;;;;;40.78;20.90;;;;;;;;;;4945897;28;20416;-75
2021/03/24 12:13:50;;;;;;;34.00;20.08;;;;;;;;;;4946116;28;20066;-75
2021/03/24 12:16:18;;;;;;;35.38;22.00;;;;;;;;;;4948247;28;20035;-75
2021/03/24 12:18:47;;;;;;;33.95;20.27;;;;;;;;;;4945294;28;20114;-75
2021/03/24 12:21:17;;;;;;;37.60;20.75;;;;;;;;;;4945383;28;20035;-75
2021/03/24 12:23:43;;;;;;;32.83;20.60;;;;;;;;;;4942874;29;20031;-76
2021/03/24 12:26:21;;;;;;;34.60;20.98;;;;;;;;;;4948517;28;20036;-76
2021/03/24 12:28:47;;;;;;;36.10;20.48;;;;;;;;;;4980436;28;20037;-75
2021/03/24 12:31:15;;;;;;;32.45;18.60;;;;;;;;;;4989861;28;20050;-75
2021/03/24 12:33:47;;;;;;;37.55;20.40;;;;;;;;;;4977402;28;20480;-74
2021/03/24 12:36:20;;;;;;;31.50;19.55;;;;;;;;;;4945627;28;20164;-74
2021/03/24 12:38:47;;;;;;;32.17;20.58;;;;;;;;;;4947378;28;20024;-74
2021/03/24 12:41:13;;;;;;;34.08;21.17;;;;;;;;;;4941546;28;20439;-74
2021/03/24 12:43:42;;;;;;;36.53;19.92;;;;;;;;;;4949001;28;20579;-74
2021/03/24 12:46:15;;;;;;;37.00;22.20;;;;;;;;;;4944635;29;20039;-74
2021/03/24 12:48:48;;;;;;;33.00;19.17;;;;;;;;;;4944332;28;20496;-74
2021/03/24 12:51:15;;;;;;;36.03;20.95;;;;;;;;;;4947660;28;20161;-75
2021/03/24 12:53:53;;;;;;;32.88;20.02;;;;;;;;;;4945736;28;20112;-74
2021/03/24 12:56:19;;;;;;;36.72;21.15;;;;;;;;;;4946631;28;20027;-76
2021/03/24 12:58:52;;;;;;;32.72;21.67;;;;;;;;;;4945535;28;20042;-74
2021/03/24 13:01:28;;;;;;;35.60;22.17;;;;;;;;;;4938395;28;20031;-75
2021/03/24 13:03:57;;;;;;;28.55;19.17;;;;;;;;;;4934675;28;20540;-72
2021/03/24 13:06:47;;;;;;;31.38;20.77;;;;;;;;;;4943804;29;20027;-74
2021/03/24 13:09:28;;;;;;;32.25;21.83;;;;;;;;;;4945851;28;20027;-72
2021/03/24 13:12:00;;;;;;;36.35;21.55;;;;;;;;;;4947633;28;20400;-74
2021/03/24 13:14:45;;;;;;;37.55;22.35;;;;;;;;;;4944953;28;20606;-74
2021/03/24 13:17:14;;;;;;;36.35;22.27;;;;;;;;;;4945594;29;20454;-74
2021/03/24 13:19:46;;;;;;;32.63;19.93;;;;;;;;;;4945211;28;20026;-74
2021/03/24 13:22:23;;;;;;;34.78;21.35;;;;;;;;;;4944619;28;20266;-74
2021/03/24 13:24:49;;;;;;;34.83;21.67;;;;;;;;;;4946372;29;20584;-74
2021/03/24 13:27:14;;;;;;;36.83;21.08;;;;;;;;;;4946902;28;20036;-75
2021/03/24 13:29:46;;;;;;;35.42;20.67;;;;;;;;;;4936985;28;20054;-74
2021/03/24 13:32:12;;;;;;;36.08;22.33;;;;;;;;;;4946344;28;20353;-74
2021/03/24 13:34:38;;;;;;;36.17;22.25;;;;;;;;;;4975484;28;20023;-76
2021/03/24 13:37:04;;;;;;;31.10;19.77;;;;;;;;;;4945933;29;20023;-75
2021/03/24 13:39:30;;;;;;;35.78;21.73;;;;;;;;;;4944277;28;20023;-76
2021/03/24 13:41:57;;;;;;;35.70;22.33;;;;;;;;;;4942338;28;20084;-76
2021/03/24 13:44:26;;;;;;;35.47;22.00;;;;;;;;;;4946075;28;20131;-75
2021/03/24 13:46:53;;;;;;;31.23;21.10;;;;;;;;;;4943119;28;20062;-74
2021/03/24 13:49:26;;;;;;;43.17;23.90;;;;;;;;;;4946891;29;20067;-74
2021/03/24 13:51:57;;;;;;;37.15;21.77;;;;;;;;;;4946236;28;20027;-74
2021/03/24 13:54:42;;;;;;;40.55;23.33;;;;;;;;;;4945603;28;20040;-73
2021/03/24 13:57:29;;;;;;;33.85;20.25;;;;;;;;;;4946701;28;20081;-74
2021/03/24 14:00:00;;;;;;;28.80;18.65;;;;;;;;;;4935894;28;20120;-74
2021/03/24 14:02:32;;;;;;;49.35;21.05;;;;;;;;;;4941208;28;20020;-74
2021/03/24 14:04:58;;;;;;;35.95;22.40;;;;;;;;;;4967313;28;20035;-74
2021/03/24 14:07:24;;;;;;;41.13;22.75;;;;;;;;;;4959549;28;20487;-75
2021/03/24 14:10:06;;;;;;;39.13;23.40;;;;;;;;;;4964218;28;20048;-75
2021/03/24 14:12:50;;;;;;;38.45;23.27;;;;;;;;;;4946304;28;20098;-78
2021/03/24 14:15:24;;;;;;;34.53;23.25;;;;;;;;;;4943931;29;20133;-75
2021/03/24 14:18:08;;;;;;;42.42;24.23;;;;;;;;;;4944527;28;20749;-77
2021/03/24 14:20:37;;;;;;;43.33;24.48;;;;;;;;;;4945277;28;20092;-74
2021/03/24 14:23:09;;;;;;;38.70;22.65;;;;;;;;;;4938069;28;20035;-75
2021/03/24 14:25:37;;;;;;;39.15;22.73;;;;;;;;;;4946181;29;20031;-73
2021/03/24 14:28:22;;;;;;;40.85;25.42;;;;;;;;;;4976542;28;20063;-71
2021/03/24 14:30:50;;;;;;;48.28;24.85;;;;;;;;;;4946498;28;20034;-73
2021/03/24 14:33:27;;;;;;;40.15;23.63;;;;;;;;;;4945985;28;20019;-74
2021/03/24 14:36:12;;;;;;;41.40;25.25;;;;;;;;;;4961046;28;20106;-73
2021/03/24 14:39:02;;;;;;;44.50;24.60;;;;;;;;;;4940037;29;20035;-73
2021/03/24 14:41:46;;;;;;;43.80;25.70;;;;;;;;;;4947065;28;20088;-73
2021/03/24 14:44:21;;;;;;;43.25;25.92;;;;;;;;;;4944589;28;20500;-73